OLB weather

Olbia Costa Smeralda Airport
Olbia (SS), Sardinia, Italy

Public forecast

Using degrees Celsius for public forecast. Weather courtesy of forecast.io.

METAR (pilot weather report)

Retrieved 2019/05/24 10:20 UTC (33 seconds ago):

LIEO 241020Z 05010KT 030V090 CAVOK 23/09 Q1015

TAF (pilot weather forecast)

Retrieved 2019/05/24 06:21 UTC (4 hours ago):

TAF LIEO 240500Z 2406/2506 24012KT 9999 SCT030 BECMG 2409/2411 07010KT BECMG 2416/2418 VRB04KT